createdAt,value
2022-09-04T00:00:14.370Z,3.13
2022-09-04T00:03:10.703Z,2.72
2022-09-04T00:05:57.054Z,4.15
2022-09-04T00:08:31.232Z,5.03
2022-09-04T00:11:26.424Z,4.20
2022-09-04T00:14:05.453Z,3.90
2022-09-04T00:16:43.365Z,4.13
2022-09-04T00:19:41.351Z,3.55
2022-09-04T00:22:32.478Z,5.57
2022-09-04T00:25:17.403Z,6.13
2022-09-04T00:27:48.198Z,3.42
2022-09-04T00:30:20.456Z,5.95
2022-09-04T00:33:09.633Z,4.10
2022-09-04T00:35:41.131Z,4.63
2022-09-04T00:38:18.026Z,4.97
2022-09-04T00:41:27.023Z,6.65
2022-09-04T00:44:32.074Z,5.07
2022-09-04T00:47:41.197Z,5.80
2022-09-04T00:50:12.224Z,5.93
2022-09-04T00:53:06.061Z,6.40
2022-09-04T00:55:33.213Z,6.03
2022-09-04T00:58:03.522Z,5.82
2022-09-04T01:00:32.191Z,6.10
2022-09-04T01:03:19.000Z,6.40
2022-09-04T01:05:56.639Z,8.48
2022-09-04T01:08:52.875Z,8.88
2022-09-04T01:11:26.396Z,9.25
2022-09-04T01:14:28.264Z,6.38
2022-09-04T01:17:14.556Z,8.85
2022-09-04T01:19:56.122Z,7.78
2022-09-04T01:25:27.638Z,7.18
2022-09-04T01:30:56.365Z,8.93
2022-09-04T01:33:36.341Z,13.27
2022-09-04T01:36:16.803Z,9.43
2022-09-04T01:38:53.625Z,9.77
2022-09-04T01:41:29.851Z,10.65
2022-09-04T01:43:57.197Z,13.23
2022-09-04T01:46:45.839Z,10.27
2022-09-04T01:49:31.332Z,10.68
2022-09-04T01:52:15.365Z,11.00
2022-09-04T01:55:03.884Z,11.50
2022-09-04T01:58:08.797Z,11.88
2022-09-04T02:01:02.198Z,10.27
2022-09-04T02:03:46.262Z,12.70
2022-09-04T02:06:13.603Z,10.57
2022-09-04T02:08:52.397Z,10.88
2022-09-04T02:11:27.858Z,10.90
2022-09-04T02:14:10.205Z,9.98
2022-09-04T02:19:31.869Z,9.70
2022-09-04T02:22:01.882Z,9.75
2022-09-04T02:24:34.210Z,11.60
2022-09-04T02:27:10.609Z,9.02
2022-09-04T02:30:03.762Z,9.15
2022-09-04T02:32:49.268Z,10.82
2022-09-04T02:35:25.423Z,10.30
2022-09-04T02:37:58.732Z,8.85
2022-09-04T02:40:31.118Z,7.95
2022-09-04T02:43:00.987Z,9.00
2022-09-04T02:45:44.942Z,8.98
2022-09-04T02:48:22.779Z,9.20
2022-09-04T02:51:37.023Z,8.40
2022-09-04T02:54:11.288Z,10.50
2022-09-04T02:57:03.971Z,8.52
2022-09-04T02:59:54.621Z,9.13
2022-09-04T03:02:31.477Z,11.03
2022-09-04T03:05:09.605Z,13.35
2022-09-04T03:07:42.883Z,9.60
2022-09-04T03:10:15.694Z,10.10
2022-09-04T03:12:50.455Z,9.38
2022-09-04T03:15:55.603Z,10.23
2022-09-04T03:18:47.330Z,17.20
2022-09-04T03:21:41.705Z,11.57
2022-09-04T03:24:17.910Z,13.43
2022-09-04T03:26:51.041Z,10.27
2022-09-04T03:29:34.503Z,11.18
2022-09-04T03:32:16.580Z,10.50
2022-09-04T03:35:05.490Z,11.68
2022-09-04T03:37:55.619Z,11.27
2022-09-04T03:40:45.723Z,13.68
2022-09-04T03:43:31.764Z,15.00
2022-09-04T03:46:31.269Z,17.40
2022-09-04T03:49:07.792Z,15.52
2022-09-04T03:51:51.979Z,16.15
2022-09-04T03:54:43.395Z,18.13
2022-09-04T03:57:32.292Z,12.65
2022-09-04T03:59:59.549Z,15.95
2022-09-04T04:02:41.678Z,13.40
2022-09-04T04:05:37.064Z,15.23
2022-09-04T04:08:43.303Z,18.88
2022-09-04T04:11:10.361Z,16.08
2022-09-04T04:14:14.813Z,20.40
2022-09-04T04:17:00.364Z,22.13
2022-09-04T04:19:58.340Z,17.25
2022-09-04T04:22:46.428Z,17.05
2022-09-04T04:25:25.723Z,20.90
2022-09-04T04:28:20.387Z,22.80
2022-09-04T04:30:52.593Z,24.20
2022-09-04T04:33:32.636Z,20.40
2022-09-04T04:36:36.827Z,20.83
2022-09-04T04:39:36.093Z,22.50
2022-09-04T04:42:22.169Z,20.13
2022-09-04T04:45:26.059Z,18.63
2022-09-04T04:48:31.855Z,17.20
2022-09-04T04:51:32.057Z,19.10
2022-09-04T04:54:18.037Z,24.88
2022-09-04T04:57:12.013Z,21.70
2022-09-04T05:00:08.517Z,23.17
2022-09-04T05:03:00.826Z,18.15
2022-09-04T05:05:46.819Z,17.58
2022-09-04T05:08:39.200Z,13.48
2022-09-04T05:11:34.443Z,15.35
2022-09-04T05:14:23.437Z,17.15
2022-09-04T05:17:15.647Z,16.98
2022-09-04T05:20:25.028Z,18.20
2022-09-04T05:23:39.539Z,18.85
2022-09-04T05:26:27.238Z,30.08
2022-09-04T05:29:12.707Z,16.92
2022-09-04T05:31:56.005Z,19.95
2022-09-04T05:34:35.076Z,18.20
2022-09-04T05:37:17.377Z,21.92
2022-09-04T05:39:58.877Z,21.20
2022-09-04T05:43:00.079Z,32.78
2022-09-04T05:45:51.594Z,14.17
2022-09-04T05:48:51.069Z,15.70
2022-09-04T05:51:43.161Z,47.15
2022-09-04T05:54:32.123Z,15.80
2022-09-04T05:57:02.263Z,15.18
2022-09-04T05:59:35.539Z,21.42
2022-09-04T06:02:24.503Z,17.02
2022-09-04T06:05:13.399Z,14.25
2022-09-04T06:08:02.319Z,14.43
2022-09-04T06:11:08.049Z,19.63
2022-09-04T06:14:00.027Z,13.65
2022-09-04T06:16:39.432Z,14.77
2022-09-04T06:19:35.263Z,13.50
2022-09-04T06:22:23.343Z,15.35
2022-09-04T06:24:53.490Z,15.82
2022-09-04T06:27:39.046Z,15.70
2022-09-04T06:30:13.930Z,17.20
2022-09-04T06:33:03.266Z,20.38
2022-09-04T06:35:32.106Z,17.63
2022-09-04T06:38:17.601Z,18.98
2022-09-04T06:41:03.322Z,20.52
2022-09-04T06:43:54.361Z,15.95
2022-09-04T06:46:34.314Z,13.30
2022-09-04T06:49:20.142Z,13.27
2022-09-04T06:52:07.726Z,13.68
2022-09-04T06:54:49.449Z,19.05
2022-09-04T06:57:50.215Z,15.93
2022-09-04T07:00:20.118Z,14.75
2022-09-04T07:02:56.648Z,16.23
2022-09-04T07:05:42.388Z,16.50
2022-09-04T07:08:18.884Z,18.40
2022-09-04T07:10:51.770Z,20.52
2022-09-04T07:13:49.494Z,18.73
2022-09-04T07:16:57.937Z,19.02
2022-09-04T07:19:28.074Z,16.10
2022-09-04T07:22:18.092Z,15.90
2022-09-04T07:24:57.085Z,41.92
2022-09-04T07:28:10.974Z,23.63
2022-09-04T07:30:57.077Z,17.70
2022-09-04T07:33:53.223Z,17.63
2022-09-04T07:36:35.463Z,16.42
2022-09-04T07:39:21.400Z,34.95
2022-09-04T07:42:31.294Z,14.00
2022-09-04T07:45:07.945Z,14.80
2022-09-04T07:47:47.616Z,14.18
2022-09-04T07:50:22.435Z,14.48
2022-09-04T07:52:50.411Z,13.30
2022-09-04T07:55:35.528Z,12.43
2022-09-04T07:58:23.367Z,13.30
2022-09-04T08:01:26.652Z,17.70
2022-09-04T08:04:15.478Z,11.05
2022-09-04T08:06:59.584Z,10.77
2022-09-04T08:09:38.818Z,14.88
2022-09-04T08:12:42.221Z,12.93
2022-09-04T08:15:10.269Z,12.32
2022-09-04T08:17:53.171Z,11.10
2022-09-04T08:20:36.087Z,13.88
2022-09-04T08:23:33.644Z,11.55
2022-09-04T08:26:25.417Z,10.60
2022-09-04T08:29:16.269Z,12.55
2022-09-04T08:32:03.685Z,13.00
2022-09-04T08:35:05.918Z,11.43
2022-09-04T08:37:39.281Z,9.07
2022-09-04T08:40:31.786Z,11.77
2022-09-04T08:43:17.616Z,9.18
2022-09-04T08:46:20.738Z,8.48
2022-09-04T08:49:17.153Z,8.30
2022-09-04T08:52:13.135Z,9.00
2022-09-04T08:55:06.007Z,10.93
2022-09-04T08:57:36.940Z,9.02
2022-09-04T09:00:15.547Z,7.90
2022-09-04T09:03:10.689Z,9.52
2022-09-04T09:06:07.258Z,15.18
2022-09-04T09:09:05.073Z,13.63
2022-09-04T09:11:43.754Z,6.80
2022-09-04T09:14:43.107Z,6.50
2022-09-04T09:17:16.181Z,6.60
2022-09-04T09:19:58.903Z,6.47
2022-09-04T09:23:08.250Z,9.52
2022-09-04T09:25:52.543Z,7.20
2022-09-04T09:28:50.544Z,7.75
2022-09-04T09:31:21.816Z,8.60
2022-09-04T09:36:44.498Z,7.47
2022-09-04T09:39:47.760Z,8.60
2022-09-04T09:42:27.369Z,9.80
2022-09-04T09:45:24.124Z,5.93
2022-09-04T09:51:17.643Z,5.40
2022-09-04T09:53:51.768Z,5.70
2022-09-04T09:56:56.600Z,5.93
2022-09-04T09:59:29.735Z,12.88
2022-09-04T10:02:40.446Z,7.03
2022-09-04T10:05:07.660Z,4.97
2022-09-04T10:07:44.523Z,4.63
2022-09-04T10:10:30.829Z,9.88
2022-09-04T10:13:19.465Z,6.32
2022-09-04T10:15:56.667Z,3.17
2022-09-04T10:18:41.732Z,3.40
2022-09-04T10:21:34.609Z,3.95
2022-09-04T10:24:20.047Z,3.83
2022-09-04T10:27:10.648Z,5.90
2022-09-04T10:29:37.771Z,6.03
2022-09-04T10:32:33.211Z,3.40
2022-09-04T10:35:21.895Z,4.05
2022-09-04T10:38:14.473Z,6.15
2022-09-04T10:41:10.475Z,3.40
2022-09-04T10:44:01.617Z,7.85
2022-09-04T10:46:51.532Z,8.13
2022-09-04T10:49:46.509Z,3.13
2022-09-04T10:52:38.318Z,7.70
2022-09-04T10:55:37.014Z,3.47
2022-09-04T10:58:10.759Z,4.35
2022-09-04T11:01:16.285Z,6.00
2022-09-04T11:04:14.095Z,4.90
2022-09-04T11:07:17.103Z,45.35
2022-09-04T11:10:12.954Z,4.13
2022-09-04T11:13:06.582Z,6.22
2022-09-04T11:15:50.477Z,2.63
2022-09-04T11:19:12.765Z,3.28
2022-09-04T11:22:08.857Z,4.55
2022-09-04T11:25:04.619Z,4.90
2022-09-04T11:27:39.224Z,3.35
2022-09-04T11:30:10.253Z,2.10
2022-09-04T11:35:20.286Z,3.65
2022-09-04T11:38:09.458Z,2.38
2022-09-04T11:40:55.531Z,2.72
2022-09-04T11:43:40.902Z,2.20
2022-09-04T11:46:35.597Z,2.35
2022-09-04T11:49:44.795Z,2.72
2022-09-04T11:52:18.606Z,2.95
2022-09-04T11:55:10.300Z,2.15
2022-09-04T11:58:07.499Z,2.17
2022-09-04T12:00:59.430Z,2.33
2022-09-04T12:04:15.350Z,1.90
2022-09-04T12:07:14.446Z,2.90
2022-09-04T12:09:41.585Z,4.88
2022-09-04T12:12:33.211Z,1.77
2022-09-04T12:15:25.982Z,2.05
2022-09-04T12:18:24.161Z,4.85
2022-09-04T12:21:02.474Z,4.03
2022-09-04T12:23:54.331Z,3.70
2022-09-04T12:26:55.124Z,5.72
2022-09-04T12:29:56.099Z,2.47
2022-09-04T12:32:26.529Z,1.88
2022-09-04T12:35:06.872Z,5.72
2022-09-04T12:38:05.216Z,3.90
2022-09-04T12:40:44.591Z,2.22
2022-09-04T12:43:45.421Z,3.83
2022-09-04T12:46:21.778Z,2.67
2022-09-04T12:49:11.810Z,4.72
2022-09-04T12:51:49.531Z,7.05
2022-09-04T12:54:50.901Z,1.95
2022-09-04T12:57:47.063Z,2.45
2022-09-04T13:00:17.600Z,2.17
2022-09-04T13:03:20.059Z,3.30
2022-09-04T13:06:04.177Z,3.60
2022-09-04T13:08:46.966Z,3.95
2022-09-04T13:11:35.878Z,2.92
2022-09-04T13:14:24.485Z,4.85
2022-09-04T13:17:02.114Z,3.10
2022-09-04T13:19:50.394Z,3.30
2022-09-04T13:22:46.237Z,8.60
2022-09-04T13:25:42.765Z,4.43
2022-09-04T13:28:27.509Z,7.45
2022-09-04T13:31:05.996Z,1.70
2022-09-04T13:33:53.383Z,2.80
2022-09-04T13:36:57.575Z,4.93
2022-09-04T13:39:49.334Z,3.72
2022-09-04T13:42:22.733Z,6.53
2022-09-04T13:45:08.827Z,3.75
2022-09-04T13:47:50.250Z,3.75
2022-09-04T13:50:25.875Z,4.93
2022-09-04T13:53:04.549Z,4.00
2022-09-04T13:55:49.896Z,4.65
2022-09-04T13:58:20.525Z,4.80
2022-09-04T14:00:57.009Z,3.73
2022-09-04T14:03:33.515Z,3.83
2022-09-04T14:06:05.532Z,4.07
2022-09-04T14:09:07.436Z,4.35
2022-09-04T14:11:51.757Z,8.02
2022-09-04T14:14:58.497Z,8.25
2022-09-04T14:18:00.933Z,8.13
2022-09-04T14:21:04.466Z,1.77
2022-09-04T14:23:56.090Z,2.17
2022-09-04T14:26:44.375Z,5.05
2022-09-04T14:29:28.388Z,4.60
2022-09-04T14:32:21.163Z,2.45
2022-09-04T14:35:28.543Z,2.50
2022-09-04T14:38:10.199Z,3.20
2022-09-04T14:40:42.437Z,2.22
2022-09-04T14:43:37.412Z,3.17
2022-09-04T14:46:16.257Z,2.10
2022-09-04T14:48:51.491Z,5.32
2022-09-04T14:51:26.040Z,4.82
2022-09-04T14:53:57.536Z,5.35
2022-09-04T14:56:27.975Z,6.72
2022-09-04T14:59:11.340Z,3.37
2022-09-04T15:02:16.501Z,12.02
2022-09-04T15:04:58.747Z,3.90
2022-09-04T15:07:42.874Z,4.25
2022-09-04T15:10:36.102Z,5.55
2022-09-04T15:13:47.642Z,5.82
2022-09-04T15:19:12.629Z,3.92
2022-09-04T15:21:55.420Z,4.70
2022-09-04T15:24:28.619Z,3.55
2022-09-04T15:27:38.415Z,2.90
2022-09-04T15:30:11.909Z,2.28
2022-09-04T15:32:42.794Z,12.30
2022-09-04T15:35:21.200Z,3.83
2022-09-04T15:38:02.564Z,7.53
2022-09-04T15:40:59.715Z,10.38
2022-09-04T15:43:31.750Z,4.28
2022-09-04T15:46:09.421Z,2.85
2022-09-04T15:48:53.436Z,2.92
2022-09-04T15:51:47.652Z,6.07
2022-09-04T15:54:28.996Z,4.53
2022-09-04T15:56:56.109Z,3.72
2022-09-04T15:59:28.066Z,5.80
2022-09-04T16:01:55.426Z,3.70
2022-09-04T16:04:32.848Z,4.07
2022-09-04T16:07:37.674Z,2.55
2022-09-04T16:10:15.252Z,6.55
2022-09-04T16:13:05.577Z,1.73
2022-09-04T16:15:39.845Z,2.20
2022-09-04T16:18:35.258Z,2.70
2022-09-04T16:21:11.193Z,2.60
2022-09-04T16:23:40.385Z,3.85
2022-09-04T16:26:15.474Z,2.97
2022-09-04T16:28:53.827Z,7.68
2022-09-04T16:31:31.466Z,8.55
2022-09-04T16:34:03.198Z,7.18
2022-09-04T16:36:34.812Z,4.68
2022-09-04T16:39:14.478Z,3.53
2022-09-04T16:41:54.212Z,2.72
2022-09-04T16:44:40.847Z,6.93
2022-09-04T16:47:10.945Z,6.15
2022-09-04T16:50:14.949Z,4.40
2022-09-04T16:52:43.826Z,11.15
2022-09-04T16:55:24.967Z,8.38
2022-09-04T16:58:07.262Z,9.55
2022-09-04T17:01:16.646Z,8.38
2022-09-04T17:04:13.840Z,16.15
2022-09-04T17:06:54.676Z,7.88
2022-09-04T17:09:43.593Z,12.27
2022-09-04T17:12:27.077Z,17.70
2022-09-04T17:15:08.562Z,8.10
2022-09-04T17:17:41.627Z,7.38
2022-09-04T17:20:12.084Z,9.00
2022-09-04T17:28:54.142Z,6.87
2022-09-04T17:29:13.159Z,8.05
2022-09-04T17:32:36.833Z,15.13
2022-09-04T17:40:35.641Z,8.10
2022-09-04T17:40:41.219Z,9.38
2022-09-04T17:41:36.073Z,15.98
2022-09-04T17:44:54.516Z,10.32
2022-09-04T17:47:43.948Z,11.38
2022-09-04T17:50:20.372Z,12.68
2022-09-04T17:52:56.876Z,10.90
2022-09-04T17:55:26.035Z,10.50
2022-09-04T17:58:29.724Z,11.65
2022-09-04T18:01:19.254Z,11.20
2022-09-04T18:04:22.021Z,7.10
2022-09-04T18:07:21.896Z,12.20
2022-09-04T18:10:09.571Z,5.40
2022-09-04T18:13:01.313Z,4.65
2022-09-04T18:15:35.164Z,7.57
2022-09-04T18:18:24.977Z,4.55
2022-09-04T18:21:07.688Z,4.50
2022-09-04T18:23:54.440Z,3.08
2022-09-04T18:26:40.988Z,7.32
2022-09-04T18:30:26.100Z,4.63
2022-09-04T18:37:12.713Z,3.72
2022-09-04T18:37:22.867Z,7.90
2022-09-04T18:39:08.705Z,7.07
2022-09-04T18:48:44.257Z,4.68
2022-09-04T18:50:23.593Z,3.03
2022-09-04T18:50:30.656Z,5.18
2022-09-04T18:51:30.553Z,3.03
2022-09-04T18:54:21.639Z,3.00
2022-09-04T18:56:54.316Z,4.50
2022-09-04T18:59:28.401Z,9.55
2022-09-04T19:02:19.378Z,6.28
2022-09-04T19:04:52.140Z,6.70
2022-09-04T19:07:34.595Z,8.18
2022-09-04T19:10:04.956Z,38.65
2022-09-04T19:12:59.215Z,9.95
2022-09-04T19:15:56.317Z,3.13
2022-09-04T19:18:41.655Z,5.32
2022-09-04T19:21:09.987Z,5.18
2022-09-04T19:23:58.838Z,3.63
2022-09-04T19:26:39.235Z,6.15
2022-09-04T19:29:32.613Z,7.18
2022-09-04T19:32:12.128Z,8.77
2022-09-04T19:35:02.909Z,6.75
2022-09-04T19:45:52.069Z,5.43
2022-09-04T19:46:01.784Z,11.05
2022-09-04T19:46:15.505Z,4.65
2022-09-04T19:47:01.168Z,8.38
2022-09-04T19:53:17.539Z,9.10
2022-09-04T19:53:32.907Z,5.50
2022-09-04T19:55:45.281Z,7.70
2022-09-04T19:58:12.545Z,8.38
2022-09-04T20:00:58.598Z,16.38
2022-09-04T20:03:33.998Z,11.25
2022-09-04T20:06:20.570Z,11.38
2022-09-04T20:09:05.547Z,7.35
2022-09-04T20:11:55.421Z,12.30
2022-09-04T20:14:31.813Z,8.75
2022-09-04T20:17:47.194Z,8.27
2022-09-04T20:20:27.144Z,8.05
2022-09-04T20:23:00.369Z,5.68
2022-09-04T20:25:45.552Z,9.70
2022-09-04T20:28:22.884Z,5.22
2022-09-04T20:31:28.443Z,7.30
2022-09-04T20:34:20.970Z,5.90
2022-09-04T20:36:54.174Z,12.48
2022-09-04T20:39:41.951Z,11.73
2022-09-04T20:42:41.432Z,9.07
2022-09-04T20:47:05.112Z,6.55
2022-09-04T20:52:42.352Z,8.45
2022-09-04T20:52:54.742Z,7.70
2022-09-04T20:54:53.486Z,10.68
2022-09-04T21:03:05.442Z,6.82
2022-09-04T21:03:19.489Z,8.18
2022-09-04T21:04:17.342Z,10.85
2022-09-04T21:06:58.545Z,4.75
2022-09-04T21:09:54.986Z,4.13
2022-09-04T21:12:34.889Z,8.05
2022-09-04T21:15:10.797Z,5.70
2022-09-04T21:18:03.142Z,5.43
2022-09-04T21:20:36.377Z,5.82
2022-09-04T21:23:59.633Z,9.48
2022-09-04T21:27:06.244Z,13.27
2022-09-04T21:30:03.706Z,15.65
2022-09-04T21:33:26.669Z,16.02
2022-09-04T21:36:26.203Z,8.98
2022-09-04T21:39:14.661Z,7.60
2022-09-04T21:42:16.668Z,4.97
2022-09-04T21:45:20.246Z,7.68
2022-09-04T21:48:23.706Z,4.95
2022-09-04T21:51:03.451Z,6.22
2022-09-04T21:53:36.844Z,4.15
2022-09-04T22:00:56.228Z,5.15
2022-09-04T22:02:43.088Z,4.20
2022-09-04T22:03:20.376Z,3.97
2022-09-04T22:06:14.526Z,4.70
2022-09-04T22:13:33.661Z,8.32
2022-09-04T22:13:42.341Z,6.20
2022-09-04T22:14:56.448Z,6.97
2022-09-04T22:17:35.468Z,9.50
2022-09-04T22:20:24.068Z,5.40
2022-09-04T22:23:12.918Z,3.80
2022-09-04T22:26:23.922Z,6.13
2022-09-04T22:29:28.625Z,4.88
2022-09-04T22:32:10.146Z,4.05
2022-09-04T22:34:59.510Z,6.22
2022-09-04T22:37:36.197Z,4.82
2022-09-04T22:40:55.902Z,5.38
2022-09-04T22:43:26.390Z,3.92
2022-09-04T22:46:30.713Z,4.60
2022-09-04T22:49:37.549Z,4.32
2022-09-04T22:52:23.388Z,7.65
2022-09-04T22:55:23.371Z,3.95
2022-09-04T22:58:21.091Z,5.78
2022-09-04T23:01:22.613Z,6.38
2022-09-04T23:04:17.759Z,4.43
2022-09-04T23:11:14.106Z,5.50
2022-09-04T23:13:48.667Z,3.72
2022-09-04T23:13:59.032Z,8.02
2022-09-04T23:16:28.214Z,3.78
2022-09-04T23:26:34.109Z,4.63
2022-09-04T23:26:35.389Z,4.55
2022-09-04T23:26:49.987Z,5.43
2022-09-04T23:29:09.772Z,5.07
2022-09-04T23:31:48.040Z,9.10
2022-09-04T23:34:56.004Z,6.20
2022-09-04T23:38:13.936Z,7.10
2022-09-04T23:40:47.181Z,7.63
2022-09-04T23:43:21.031Z,6.22
2022-09-04T23:46:29.235Z,4.38
2022-09-04T23:49:23.720Z,6.18
2022-09-04T23:52:14.165Z,7.32
2022-09-04T23:54:53.137Z,4.35
2022-09-04T23:57:43.663Z,6.72
